Terminal Aerodrome Forecast
Issued by NWS

Current Version | Previous Version | Text Only | Print | Product List | Glossary Off
Versions: 1 2 3 4 5 6 7 8 9 10 11 12 13 14 15 16 17 18 19 20

000
FTUS41 KILN 131400 AAA
TAFLCK
TAF AMD
KLCK 131430Z 1315/1412 33012KT P6SM BKN022
      TEMPO 1315/1316 BKN018
     FM131700 34012KT P6SM SCT035
     FM132200 VRB03KT P6SM SKC=

USA.gov is the U.S. government's official web portal to all federal, state and local government web resources and services.